createdAt,value
2019-01-19T00:01:48.442Z,92116.67
2019-01-19T00:04:54.620Z,92126.72
2019-01-19T00:07:56.973Z,92121.66
2019-01-19T00:11:29.006Z,92116.53
2019-01-19T00:14:17.428Z,92115.00
2019-01-19T00:17:11.148Z,92121.31
2019-01-19T00:20:35.039Z,92127.06
2019-01-19T00:23:16.154Z,92130.62
2019-01-19T00:26:47.084Z,92117.23
2019-01-19T00:29:35.517Z,92112.55
2019-01-19T00:32:20.403Z,92114.98
2019-01-19T00:35:38.325Z,92113.68
2019-01-19T00:38:16.740Z,92111.03
2019-01-19T00:41:36.754Z,92107.91
2019-01-19T00:44:37.812Z,92108.25
2019-01-19T00:47:49.689Z,92123.17
2019-01-19T00:51:16.066Z,92117.50
2019-01-19T00:54:10.353Z,92117.42
2019-01-19T00:56:51.946Z,92133.98
2019-01-19T00:59:26.921Z,92134.48
2019-01-19T01:02:33.622Z,92130.80
2019-01-19T01:05:25.344Z,92139.14
2019-01-19T01:08:36.338Z,92135.33
2019-01-19T01:11:16.910Z,92139.58
2019-01-19T01:14:27.570Z,92132.66
2019-01-19T01:17:42.877Z,92136.49
2019-01-19T01:21:03.624Z,92126.84
2019-01-19T01:24:18.920Z,92119.29
2019-01-19T01:27:27.163Z,92125.87
2019-01-19T01:30:36.065Z,92127.57
2019-01-19T01:33:48.585Z,92122.43
2019-01-19T01:36:32.766Z,92114.89
2019-01-19T01:39:39.019Z,92115.38
2019-01-19T01:42:31.573Z,92116.47
2019-01-19T01:45:30.053Z,92116.45
2019-01-19T01:48:27.048Z,92111.08
2019-01-19T01:51:39.250Z,92117.95
2019-01-19T01:54:24.318Z,92121.77
2019-01-19T01:57:01.909Z,92119.52
2019-01-19T01:59:52.747Z,92124.24
2019-01-19T02:02:52.562Z,92121.31
2019-01-19T02:05:40.307Z,92112.84
2019-01-19T02:08:28.267Z,92119.37
2019-01-19T02:11:46.876Z,92115.65
2019-01-19T02:14:49.219Z,92120.12
2019-01-19T02:18:00.922Z,92122.08
2019-01-19T02:20:56.994Z,92120.01
2019-01-19T02:24:02.467Z,92118.26
2019-01-19T02:27:30.022Z,92113.45
2019-01-19T02:30:50.045Z,92107.38
2019-01-19T02:34:15.538Z,92108.61
2019-01-19T02:37:30.453Z,92116.19
2019-01-19T02:40:37.734Z,92117.36
2019-01-19T02:43:22.201Z,92125.95
2019-01-19T02:46:28.580Z,92115.47
2019-01-19T02:49:36.106Z,92116.05
2019-01-19T02:52:46.284Z,92126.38
2019-01-19T02:56:01.470Z,92111.76
2019-01-19T02:59:00.002Z,92105.06
2019-01-19T03:02:16.424Z,92110.94
2019-01-19T03:05:19.142Z,92112.83
2019-01-19T03:08:31.097Z,92114.20
2019-01-19T03:11:17.928Z,92104.34
2019-01-19T03:14:16.008Z,92111.47
2019-01-19T03:17:22.669Z,92102.86
2019-01-19T03:20:31.694Z,92096.85
2019-01-19T03:23:37.953Z,92099.55
2019-01-19T03:26:19.791Z,92099.23
2019-01-19T03:29:16.736Z,92096.98
2019-01-19T03:32:25.694Z,92095.43
2019-01-19T03:35:34.187Z,92102.05
2019-01-19T03:38:30.914Z,92098.77
2019-01-19T03:41:23.061Z,92092.81
2019-01-19T03:44:42.857Z,92094.14
2019-01-19T03:47:39.014Z,92100.02
2019-01-19T03:50:43.116Z,92092.84
2019-01-19T03:53:36.757Z,92101.47
2019-01-19T03:57:06.529Z,92099.43
2019-01-19T04:00:16.554Z,92094.77
2019-01-19T04:03:24.063Z,92097.16
2019-01-19T04:06:35.385Z,92098.00
2019-01-19T04:09:33.122Z,92103.27
2019-01-19T04:12:31.944Z,92094.77
2019-01-19T04:16:06.047Z,92090.57
2019-01-19T04:19:01.929Z,92083.98
2019-01-19T04:22:08.735Z,92100.25
2019-01-19T04:25:27.743Z,92093.44
2019-01-19T04:28:00.431Z,92097.27
2019-01-19T04:30:31.533Z,92093.31
2019-01-19T04:33:02.883Z,92094.05
2019-01-19T04:35:34.663Z,92091.42
2019-01-19T04:38:08.616Z,92097.38
2019-01-19T04:40:41.076Z,92093.61
2019-01-19T04:43:15.703Z,92098.13
2019-01-19T04:45:46.746Z,92093.96
2019-01-19T04:48:19.679Z,92093.58
2019-01-19T04:50:51.211Z,92107.38
2019-01-19T04:53:22.188Z,92107.81
2019-01-19T04:55:53.735Z,92110.27
2019-01-19T04:58:25.346Z,92105.19
2019-01-19T05:00:57.859Z,92107.66
2019-01-19T05:03:31.395Z,92110.32
2019-01-19T05:06:11.778Z,92115.84
2019-01-19T05:08:35.691Z,92112.48
2019-01-19T05:11:07.241Z,92106.01
2019-01-19T05:13:38.237Z,92113.08
2019-01-19T05:16:09.814Z,92123.62
2019-01-19T05:18:44.534Z,92115.11
2019-01-19T05:21:16.534Z,92106.01
2019-01-19T05:23:49.958Z,92104.59
2019-01-19T05:26:21.121Z,92113.56
2019-01-19T05:28:52.534Z,92110.45
2019-01-19T05:31:23.978Z,92116.44
2019-01-19T05:33:55.231Z,92119.80
2019-01-19T05:36:28.708Z,92121.33
2019-01-19T05:38:59.839Z,92118.41
2019-01-19T05:41:30.986Z,92124.06
2019-01-19T05:44:02.358Z,92118.45
2019-01-19T05:46:40.326Z,92122.91
2019-01-19T05:49:13.188Z,92122.78
2019-01-19T05:51:44.423Z,92130.20
2019-01-19T05:54:16.181Z,92131.52
2019-01-19T05:56:47.461Z,92134.87
2019-01-19T05:59:18.730Z,92141.22
2019-01-19T06:01:50.054Z,92135.47
2019-01-19T06:04:21.258Z,92127.69
2019-01-19T06:06:52.228Z,92136.06
2019-01-19T06:09:23.249Z,92127.10
2019-01-19T06:11:54.344Z,92125.34
2019-01-19T06:14:28.185Z,92131.20
2019-01-19T06:17:02.674Z,92133.72
2019-01-19T06:19:34.039Z,92137.69
2019-01-19T06:22:05.838Z,92136.14
2019-01-19T06:24:36.951Z,92142.87
2019-01-19T06:27:08.336Z,92149.83
2019-01-19T06:29:39.720Z,92136.64
2019-01-19T06:32:10.996Z,92139.64
2019-01-19T06:34:42.112Z,92143.15
2019-01-19T06:37:13.191Z,92147.42
2019-01-19T06:39:44.195Z,92143.12
2019-01-19T06:42:15.510Z,92150.89
2019-01-19T06:44:46.777Z,92148.51
2019-01-19T06:47:18.132Z,92147.94
2019-01-19T06:49:51.582Z,92155.58
2019-01-19T06:52:22.597Z,92153.42
2019-01-19T06:54:53.869Z,92155.20
2019-01-19T06:57:26.953Z,92154.41
2019-01-19T06:59:59.684Z,92152.94
2019-01-19T07:02:31.605Z,92150.66
2019-01-19T07:05:06.329Z,92150.33
2019-01-19T07:07:37.349Z,92157.97
2019-01-19T07:10:12.740Z,92153.66
2019-01-19T07:12:44.663Z,92158.09
2019-01-19T07:15:23.453Z,92165.64
2019-01-19T07:18:01.020Z,92158.45
2019-01-19T07:20:32.630Z,92165.13
2019-01-19T07:23:03.959Z,92165.48
2019-01-19T07:25:37.094Z,92158.84
2019-01-19T07:28:08.431Z,92166.46
2019-01-19T07:30:39.498Z,92163.20
2019-01-19T07:33:10.872Z,92165.02
2019-01-19T07:35:43.704Z,92172.59
2019-01-19T07:38:14.761Z,92170.58
2019-01-19T07:40:46.021Z,92174.22
2019-01-19T07:43:17.824Z,92177.47
2019-01-19T07:45:48.811Z,92176.86
2019-01-19T07:48:25.550Z,92174.58
2019-01-19T07:51:06.692Z,92182.81
2019-01-19T07:53:38.388Z,92182.02
2019-01-19T07:56:11.803Z,92180.50
2019-01-19T07:58:43.205Z,92187.72
2019-01-19T08:01:15.442Z,92189.07
2019-01-19T08:03:46.453Z,92189.52
2019-01-19T08:06:17.619Z,92199.80
2019-01-19T08:08:49.038Z,92200.58
2019-01-19T08:11:19.951Z,92198.45
2019-01-19T08:13:51.519Z,92208.01
2019-01-19T08:16:22.490Z,92206.27
2019-01-19T08:18:53.530Z,92203.44
2019-01-19T08:21:24.567Z,92206.00
2019-01-19T08:23:55.903Z,92209.10
2019-01-19T08:26:27.357Z,92209.27
2019-01-19T08:28:58.828Z,92200.44
2019-01-19T08:31:29.854Z,92199.70
2019-01-19T08:34:00.836Z,92207.21
2019-01-19T08:36:31.950Z,92207.86
2019-01-19T08:39:02.971Z,92203.82
2019-01-19T08:41:33.934Z,92204.82
2019-01-19T08:44:06.167Z,92197.55
2019-01-19T08:46:37.514Z,92205.87
2019-01-19T08:49:08.523Z,92209.05
2019-01-19T08:51:39.864Z,92211.89
2019-01-19T08:54:11.331Z,92215.19
2019-01-19T08:56:42.745Z,92216.73
2019-01-19T08:59:13.768Z,92216.80
2019-01-19T09:01:45.158Z,92218.13
2019-01-19T09:04:17.098Z,92211.59
2019-01-19T09:06:48.085Z,92217.34
2019-01-19T09:09:19.737Z,92222.55
2019-01-19T09:11:50.697Z,92221.20
2019-01-19T09:14:21.682Z,92212.74
2019-01-19T09:16:53.790Z,92212.99
2019-01-19T09:19:24.702Z,92214.28
2019-01-19T09:21:55.815Z,92215.86
2019-01-19T09:24:29.173Z,92215.25
2019-01-19T09:27:00.228Z,92214.06
2019-01-19T09:29:31.814Z,92212.30
2019-01-19T09:32:03.392Z,92207.90
2019-01-19T09:34:34.784Z,92208.13
2019-01-19T09:37:06.122Z,92202.13
2019-01-19T09:39:37.689Z,92197.77
2019-01-19T09:42:08.673Z,92195.45
2019-01-19T09:44:39.788Z,92190.33
2019-01-19T09:47:10.751Z,92193.28
2019-01-19T09:49:41.989Z,92189.41
2019-01-19T09:52:12.947Z,92193.64
2019-01-19T09:54:43.965Z,92195.11
2019-01-19T09:57:16.682Z,92196.45
2019-01-19T09:59:48.071Z,92180.23
2019-01-19T10:02:20.267Z,92180.23
2019-01-19T10:04:55.029Z,92177.30
2019-01-19T10:07:27.018Z,92178.72
2019-01-19T10:09:57.969Z,92170.81
2019-01-19T10:12:28.980Z,92169.75
2019-01-19T10:15:00.416Z,92170.77
2019-01-19T10:17:31.767Z,92158.94
2019-01-19T10:20:02.821Z,92149.25
2019-01-19T10:22:33.984Z,92158.72
2019-01-19T10:25:06.525Z,92149.91
2019-01-19T10:27:37.616Z,92148.33
2019-01-19T10:30:15.613Z,92147.72
2019-01-19T10:32:47.030Z,92148.39
2019-01-19T10:35:19.652Z,92143.11
2019-01-19T10:37:56.320Z,92142.64
2019-01-19T10:40:23.355Z,92133.56
2019-01-19T10:42:54.415Z,92140.30
2019-01-19T10:45:28.919Z,92141.19
2019-01-19T10:47:59.817Z,92137.77
2019-01-19T10:50:31.176Z,92131.70
2019-01-19T10:53:02.125Z,92121.73
2019-01-19T10:55:33.099Z,92122.55
2019-01-19T10:58:04.086Z,92119.91
2019-01-19T11:00:35.277Z,92113.77
2019-01-19T11:03:06.472Z,92116.18
2019-01-19T11:05:37.871Z,92112.89
2019-01-19T11:08:10.565Z,92111.13
2019-01-19T11:10:41.969Z,92111.05
2019-01-19T11:13:13.400Z,92102.97
2019-01-19T11:15:46.603Z,92094.67
2019-01-19T11:18:18.044Z,92091.47
2019-01-19T11:20:49.534Z,92092.14
2019-01-19T11:23:20.533Z,92088.89
2019-01-19T11:25:51.578Z,92086.86
2019-01-19T11:28:22.556Z,92089.80
2019-01-19T11:30:53.537Z,92082.58
2019-01-19T11:33:24.636Z,92077.39
2019-01-19T11:35:55.699Z,92082.52
2019-01-19T11:38:26.618Z,92074.92
2019-01-19T11:40:57.956Z,92074.10
2019-01-19T11:43:29.363Z,92067.87
2019-01-19T11:46:01.021Z,92069.58
2019-01-19T11:48:31.997Z,92074.04
2019-01-19T11:51:03.049Z,92063.84
2019-01-19T11:53:34.187Z,92065.92
2019-01-19T11:56:12.007Z,92061.43
2019-01-19T11:58:38.782Z,92070.11
2019-01-19T12:01:09.747Z,92065.16
2019-01-19T12:03:40.805Z,92067.60
2019-01-19T12:06:11.839Z,92075.05
2019-01-19T12:08:43.298Z,92082.36
2019-01-19T12:11:14.407Z,92069.43
2019-01-19T12:13:45.723Z,92067.97
2019-01-19T12:16:16.698Z,92060.08
2019-01-19T12:18:48.050Z,92065.89
2019-01-19T12:21:19.128Z,92066.35
2019-01-19T12:23:51.906Z,92062.30
2019-01-19T12:26:23.301Z,92057.80
2019-01-19T12:28:55.189Z,92054.38
2019-01-19T12:31:34.502Z,92052.62
2019-01-19T12:34:06.160Z,92060.39
2019-01-19T12:36:37.561Z,92058.44
2019-01-19T12:39:11.672Z,92060.74
2019-01-19T12:41:42.967Z,92058.86
2019-01-19T12:44:13.964Z,92055.85
2019-01-19T12:46:45.188Z,92057.02
2019-01-19T12:49:20.862Z,92051.45
2019-01-19T12:51:52.296Z,92051.66
2019-01-19T12:54:23.767Z,92056.74
2019-01-19T12:56:54.863Z,92056.92
2019-01-19T12:59:25.810Z,92056.12
2019-01-19T13:01:57.184Z,92060.44
2019-01-19T13:04:29.880Z,92062.72
2019-01-19T13:07:11.335Z,92054.59
2019-01-19T13:09:46.099Z,92051.64
2019-01-19T13:12:35.291Z,92058.59
2019-01-19T13:15:53.899Z,92052.97
2019-01-19T13:19:04.556Z,92058.58
2019-01-19T13:22:12.814Z,92057.31
2019-01-19T13:25:40.156Z,92059.97
2019-01-19T13:29:01.078Z,92063.17
2019-01-19T13:36:11.888Z,92064.33
2019-01-19T13:39:00.964Z,92066.35
2019-01-19T13:42:14.118Z,92061.65
2019-01-19T13:45:27.901Z,92054.13
2019-01-19T13:48:26.125Z,92061.77
2019-01-19T13:51:21.788Z,92060.65
2019-01-19T13:54:42.339Z,92059.75
2019-01-19T13:57:28.475Z,92066.87
2019-01-19T14:00:24.667Z,92062.12
2019-01-19T14:03:23.271Z,92071.27
2019-01-19T14:06:34.416Z,92063.88
2019-01-19T14:10:00.246Z,92063.41
2019-01-19T14:12:54.558Z,92064.50
2019-01-19T14:15:56.987Z,92057.70
2019-01-19T14:19:07.877Z,92051.52
2019-01-19T14:22:07.341Z,92047.23
2019-01-19T14:25:00.097Z,92051.39
2019-01-19T14:28:17.760Z,92056.28
2019-01-19T14:31:35.015Z,92059.20
2019-01-19T14:34:46.043Z,92057.35
2019-01-19T14:37:34.813Z,92056.82
2019-01-19T14:40:28.817Z,92058.69
2019-01-19T14:43:42.679Z,92052.98
2019-01-19T14:46:46.067Z,92051.90
2019-01-19T14:49:57.705Z,92054.04
2019-01-19T14:53:15.769Z,92055.05
2019-01-19T14:56:36.675Z,92058.82
2019-01-19T14:59:34.238Z,92056.56
2019-01-19T15:02:51.940Z,92061.39
2019-01-19T15:05:50.922Z,92061.56
2019-01-19T15:08:33.193Z,92064.38
2019-01-19T15:11:50.829Z,92058.75
2019-01-19T15:14:59.219Z,92064.30
2019-01-19T15:18:19.002Z,92060.69
2019-01-19T15:21:32.824Z,92055.73
2019-01-19T15:24:40.182Z,92047.35
2019-01-19T15:27:53.579Z,92057.13
2019-01-19T15:30:57.697Z,92054.61
2019-01-19T15:34:00.339Z,92052.66
2019-01-19T15:37:23.547Z,92060.72
2019-01-19T15:40:35.289Z,92056.53
2019-01-19T15:43:46.944Z,92059.69
2019-01-19T15:47:01.660Z,92061.84
2019-01-19T15:50:08.325Z,92063.47
2019-01-19T15:53:29.290Z,92062.53
2019-01-19T15:56:43.596Z,92066.61
2019-01-19T15:59:28.920Z,92060.09
2019-01-19T16:02:45.065Z,92066.91
2019-01-19T16:05:48.575Z,92070.95
2019-01-19T16:08:32.435Z,92078.86
2019-01-19T16:11:23.524Z,92080.55
2019-01-19T16:14:50.983Z,92088.30
2019-01-19T16:17:58.176Z,92091.55
2019-01-19T16:21:19.019Z,92079.45
2019-01-19T16:24:19.883Z,92082.80
2019-01-19T16:27:16.277Z,92078.19
2019-01-19T16:30:22.517Z,92077.89
2019-01-19T16:33:52.426Z,92079.32
2019-01-19T16:37:08.401Z,92079.41
2019-01-19T16:40:07.057Z,92077.62
2019-01-19T16:43:35.084Z,92087.84
2019-01-19T16:47:17.556Z,92098.66
2019-01-19T16:50:28.137Z,92090.66
2019-01-19T16:53:18.930Z,92098.36
2019-01-19T16:56:16.225Z,92091.73
2019-01-19T16:59:28.151Z,92096.20
2019-01-19T17:02:20.439Z,92098.14
2019-01-19T17:05:36.195Z,92100.17
2019-01-19T17:08:46.508Z,92099.02
2019-01-19T17:11:51.075Z,92099.66
2019-01-19T17:15:03.420Z,92105.65
2019-01-19T17:18:24.096Z,92105.02
2019-01-19T17:21:37.723Z,92113.61
2019-01-19T17:24:33.668Z,92117.67
2019-01-19T17:27:36.450Z,92118.17
2019-01-19T17:30:48.053Z,92116.31
2019-01-19T17:33:48.866Z,92115.62
2019-01-19T17:37:10.090Z,92120.56
2019-01-19T17:40:27.263Z,92116.28
2019-01-19T17:43:57.345Z,92120.42
2019-01-19T17:46:49.507Z,92115.58
2019-01-19T17:50:16.785Z,92114.78
2019-01-19T17:53:17.491Z,92115.14
2019-01-19T17:56:24.399Z,92114.98
2019-01-19T17:59:35.285Z,92106.88
2019-01-19T18:02:58.488Z,92106.79
2019-01-19T18:06:03.490Z,92104.43
2019-01-19T18:09:03.909Z,92095.56
2019-01-19T18:12:14.098Z,92096.98
2019-01-19T18:15:18.160Z,92100.45
2019-01-19T18:18:31.317Z,92107.19
2019-01-19T18:21:52.548Z,92109.73
2019-01-19T18:25:04.305Z,92115.52
2019-01-19T18:28:19.282Z,92113.45
2019-01-19T18:31:45.098Z,92113.50
2019-01-19T18:34:48.598Z,92110.70
2019-01-19T18:37:49.683Z,92120.03
2019-01-19T18:41:10.087Z,92120.27
2019-01-19T18:44:02.871Z,92123.42
2019-01-19T18:47:10.909Z,92120.23
2019-01-19T18:50:37.942Z,92113.42
2019-01-19T18:53:48.399Z,92107.41
2019-01-19T18:56:49.926Z,92106.37
2019-01-19T18:59:41.837Z,92108.01
2019-01-19T19:02:29.652Z,92104.89
2019-01-19T19:05:17.862Z,92105.55
2019-01-19T19:08:47.989Z,92111.86
2019-01-19T19:12:02.977Z,92108.84
2019-01-19T19:15:22.963Z,92114.46
2019-01-19T19:18:14.935Z,92109.37
2019-01-19T19:21:30.503Z,92116.69
2019-01-19T19:24:16.351Z,92127.44
2019-01-19T19:27:23.846Z,92133.17
2019-01-19T19:30:06.574Z,92129.15
2019-01-19T19:33:24.282Z,92129.14
2019-01-19T19:36:41.601Z,92135.14
2019-01-19T19:39:38.199Z,92136.57
2019-01-19T19:42:45.470Z,92138.27
2019-01-19T19:45:57.329Z,92137.95
2019-01-19T19:49:24.283Z,92142.62
2019-01-19T19:51:58.741Z,92143.13
2019-01-19T19:54:31.474Z,92146.70
2019-01-19T19:57:02.753Z,92149.94
2019-01-19T19:59:34.469Z,92141.45
2019-01-19T20:02:08.941Z,92145.48
2019-01-19T20:04:41.123Z,92149.38
2019-01-19T20:07:21.213Z,92146.14
2019-01-19T20:09:52.206Z,92145.01
2019-01-19T20:12:24.727Z,92147.94
2019-01-19T20:14:59.069Z,92145.95
2019-01-19T20:17:30.438Z,92145.28
2019-01-19T20:20:02.677Z,92141.50
2019-01-19T20:22:34.052Z,92144.97
2019-01-19T20:25:06.128Z,92139.41
2019-01-19T20:27:37.256Z,92133.02
2019-01-19T20:30:11.050Z,92142.70
2019-01-19T20:32:42.430Z,92145.11
2019-01-19T20:35:17.999Z,92151.90
2019-01-19T20:37:54.738Z,92150.22
2019-01-19T20:40:29.316Z,92154.84
2019-01-19T20:43:00.847Z,92147.34
2019-01-19T20:45:31.911Z,92149.16
2019-01-19T20:48:04.044Z,92141.09
2019-01-19T20:50:35.144Z,92142.84
2019-01-19T20:53:06.269Z,92144.45
2019-01-19T20:55:37.366Z,92140.28
2019-01-19T20:58:09.087Z,92140.27
2019-01-19T21:01:05.284Z,92148.72
2019-01-19T21:03:57.449Z,92149.09
2019-01-19T21:06:52.193Z,92155.49
2019-01-19T21:09:44.277Z,92148.30
2019-01-19T21:12:41.721Z,92153.62
2019-01-19T21:15:34.785Z,92150.19
2019-01-19T21:18:27.306Z,92152.08
2019-01-19T21:21:17.032Z,92161.22
2019-01-19T21:24:07.650Z,92155.70
2019-01-19T21:26:57.277Z,92155.17
2019-01-19T21:29:46.987Z,92155.20
2019-01-19T21:32:36.799Z,92165.83
2019-01-19T21:35:26.353Z,92160.30
2019-01-19T21:38:16.812Z,92157.33
2019-01-19T21:41:07.507Z,92154.88
2019-01-19T21:44:00.218Z,92153.03
2019-01-19T21:46:55.345Z,92151.91
2019-01-19T21:49:44.900Z,92144.67
2019-01-19T21:52:34.874Z,92142.62
2019-01-19T21:55:24.574Z,92146.70
2019-01-19T21:58:14.796Z,92140.28
2019-01-19T22:01:04.613Z,92141.91
2019-01-19T22:03:59.181Z,92139.04
2019-01-19T22:06:48.977Z,92144.08
2019-01-19T22:09:38.805Z,92139.14
2019-01-19T22:12:28.790Z,92130.47
2019-01-19T22:15:19.385Z,92144.86
2019-01-19T22:18:09.150Z,92141.84
2019-01-19T22:20:58.721Z,92133.38
2019-01-19T22:23:48.351Z,92135.25
2019-01-19T22:26:38.751Z,92134.24
2019-01-19T22:29:28.026Z,92133.32
2019-01-19T22:32:17.793Z,92126.80
2019-01-19T22:35:08.518Z,92135.75
2019-01-19T22:37:57.302Z,92130.84
2019-01-19T22:40:53.458Z,92134.18
2019-01-19T22:43:38.584Z,92129.48
2019-01-19T22:46:29.397Z,92119.81
2019-01-19T22:49:20.232Z,92117.91
2019-01-19T22:52:09.976Z,92113.69
2019-01-19T22:54:59.808Z,92107.56
2019-01-19T22:57:49.529Z,92106.56
2019-01-19T23:01:36.282Z,92111.61
2019-01-19T23:04:26.477Z,92106.34
2019-01-19T23:07:16.462Z,92108.67
2019-01-19T23:10:06.418Z,92106.17
2019-01-19T23:12:56.634Z,92099.97
2019-01-19T23:15:46.113Z,92095.36
2019-01-19T23:18:36.149Z,92100.03
2019-01-19T23:21:24.814Z,92092.95
2019-01-19T23:24:15.147Z,92089.37
2019-01-19T23:27:07.725Z,92088.80
2019-01-19T23:29:57.609Z,92087.61
2019-01-19T23:32:47.375Z,92080.66
2019-01-19T23:35:36.365Z,92079.59
2019-01-19T23:38:25.359Z,92078.67
2019-01-19T23:41:14.993Z,92087.79
2019-01-19T23:44:04.703Z,92083.25
2019-01-19T23:46:54.384Z,92079.25
2019-01-19T23:49:43.820Z,92081.02
2019-01-19T23:52:33.010Z,92068.89
2019-01-19T23:55:22.488Z,92073.29
2019-01-19T23:58:12.210Z,92072.55
